createdAt,value
2022-08-17T00:01:51.285Z,64.48
2022-08-17T00:04:22.834Z,65.34
2022-08-17T00:06:50.660Z,65.56
2022-08-17T00:09:18.718Z,66.36
2022-08-17T00:12:03.955Z,66.26
2022-08-17T00:14:36.573Z,66.87
2022-08-17T00:17:05.161Z,67.36
2022-08-17T00:19:33.008Z,67.43
2022-08-17T00:22:35.151Z,67.37
2022-08-17T00:24:52.225Z,67.78
2022-08-17T00:27:19.491Z,67.85
2022-08-17T00:29:46.942Z,67.71
2022-08-17T00:33:11.985Z,67.84
2022-08-17T00:35:05.913Z,68.10
2022-08-17T00:37:33.030Z,68.26
2022-08-17T00:40:00.206Z,68.61
2022-08-17T00:42:30.974Z,69.41
2022-08-17T00:44:58.807Z,69.94
2022-08-17T00:47:26.105Z,70.60
2022-08-17T00:49:54.066Z,71.22
2022-08-17T00:52:25.003Z,71.53
2022-08-17T00:54:54.471Z,72.75
2022-08-17T00:57:24.706Z,73.05
2022-08-17T01:00:03.180Z,73.44
2022-08-17T01:02:42.253Z,73.89
2022-08-17T01:05:19.842Z,74.38
2022-08-17T01:07:51.128Z,75.27
2022-08-17T01:11:00.423Z,75.23
2022-08-17T01:13:11.291Z,75.56
2022-08-17T01:15:46.130Z,75.67
2022-08-17T01:18:17.267Z,75.73
2022-08-17T01:20:49.469Z,76.05
2022-08-17T01:23:23.398Z,76.32
2022-08-17T01:25:53.072Z,76.00
2022-08-17T01:28:52.418Z,75.28
2022-08-17T01:31:15.022Z,75.08
2022-08-17T01:33:42.320Z,75.67
2022-08-17T01:36:10.191Z,75.73
2022-08-17T01:38:38.559Z,76.05
2022-08-17T01:41:12.644Z,76.06
2022-08-17T01:43:51.410Z,76.38
2022-08-17T01:46:27.203Z,76.34
2022-08-17T01:48:57.685Z,76.92
2022-08-17T01:51:32.191Z,76.74
2022-08-17T01:54:06.382Z,77.27
2022-08-17T01:56:36.909Z,77.52
2022-08-17T01:59:04.592Z,77.83
2022-08-17T02:01:34.690Z,78.13
2022-08-17T02:04:02.998Z,78.64
2022-08-17T02:06:52.512Z,79.15
2022-08-17T02:09:25.666Z,80.16
2022-08-17T02:11:57.974Z,80.34
2022-08-17T02:14:28.138Z,80.79
2022-08-17T02:16:56.217Z,81.62
2022-08-17T02:19:23.322Z,82.81
2022-08-17T02:21:52.485Z,83.70
2022-08-17T02:25:00.159Z,83.95
2022-08-17T02:27:12.260Z,84.58
2022-08-17T02:29:41.567Z,85.11
2022-08-17T02:32:27.175Z,86.62
2022-08-17T02:34:59.387Z,89.49
2022-08-17T02:37:28.070Z,92.85
2022-08-17T02:39:58.830Z,93.54
2022-08-17T02:42:35.608Z,94.74
2022-08-17T02:45:06.063Z,95.54
2022-08-17T02:47:33.809Z,95.89
2022-08-17T02:50:00.776Z,96.58
2022-08-17T02:52:53.270Z,97.41
2022-08-17T02:55:30.693Z,97.30
2022-08-17T02:57:57.903Z,98.11
2022-08-17T03:00:34.003Z,98.81
2022-08-17T03:03:05.686Z,98.94
2022-08-17T03:05:35.247Z,99.42
2022-08-17T03:08:03.209Z,100.00
2022-08-17T03:10:30.210Z,100.00
2022-08-17T03:12:57.204Z,100.00
2022-08-17T03:15:28.936Z,100.00
2022-08-17T03:17:56.850Z,100.00
2022-08-17T03:20:25.333Z,100.00
2022-08-17T03:22:55.712Z,100.00
2022-08-17T03:25:32.760Z,100.00
2022-08-17T03:28:01.833Z,100.00
2022-08-17T03:30:29.664Z,100.00
2022-08-17T03:33:03.992Z,100.00
2022-08-17T03:35:36.692Z,100.00
2022-08-17T03:38:05.200Z,100.00
2022-08-17T03:40:36.970Z,100.00
2022-08-17T03:43:23.445Z,100.00
2022-08-17T03:46:19.296Z,100.00
2022-08-17T03:49:15.466Z,100.00
2022-08-17T03:52:03.474Z,100.00
2022-08-17T03:54:49.020Z,100.00
2022-08-17T03:57:16.921Z,100.00
2022-08-17T03:59:47.736Z,100.00
2022-08-17T04:02:22.426Z,100.00
2022-08-17T04:04:54.065Z,100.00
2022-08-17T04:07:27.647Z,100.00
2022-08-17T04:09:55.162Z,100.00
2022-08-17T04:12:23.329Z,100.00
2022-08-17T04:14:52.731Z,100.00
2022-08-17T04:17:27.402Z,100.00
2022-08-17T04:19:57.021Z,100.00
2022-08-17T04:22:32.508Z,100.00
2022-08-17T04:25:16.856Z,100.00
2022-08-17T04:27:44.197Z,100.00
2022-08-17T04:30:14.832Z,100.00
2022-08-17T04:33:05.915Z,100.00
2022-08-17T04:35:41.279Z,100.00
2022-08-17T04:38:12.407Z,100.00
2022-08-17T04:41:01.114Z,100.00
2022-08-17T04:43:29.333Z,100.00
2022-08-17T04:46:06.464Z,100.00
2022-08-17T04:48:40.374Z,100.00
2022-08-17T04:51:11.248Z,100.00
2022-08-17T04:53:44.419Z,100.00
2022-08-17T04:56:16.954Z,99.74
2022-08-17T04:58:51.122Z,98.65
2022-08-17T05:01:24.822Z,97.21
2022-08-17T05:03:56.304Z,97.62
2022-08-17T05:06:26.782Z,97.16
2022-08-17T05:08:54.842Z,97.00
2022-08-17T05:11:24.144Z,95.63
2022-08-17T05:13:51.719Z,95.10
2022-08-17T05:16:20.611Z,94.49
2022-08-17T05:18:48.219Z,94.19
2022-08-17T05:21:15.943Z,92.97
2022-08-17T05:23:43.570Z,91.25
2022-08-17T05:26:25.738Z,91.25
2022-08-17T05:29:00.551Z,86.79
2022-08-17T05:31:32.230Z,82.14
2022-08-17T05:34:02.659Z,81.48
2022-08-17T05:36:41.902Z,81.99
2022-08-17T05:39:16.215Z,82.01
2022-08-17T05:41:48.404Z,81.51
2022-08-17T05:44:16.775Z,81.79
2022-08-17T05:46:51.059Z,79.21
2022-08-17T05:49:25.496Z,78.46
2022-08-17T05:52:21.017Z,77.50
2022-08-17T05:54:54.571Z,76.02
2022-08-17T05:57:29.323Z,75.52
2022-08-17T06:00:20.951Z,73.72
2022-08-17T06:02:53.838Z,72.38
2022-08-17T06:05:33.290Z,72.29
2022-08-17T06:08:08.864Z,70.48
2022-08-17T06:10:59.325Z,69.06
2022-08-17T06:13:59.089Z,68.71
2022-08-17T06:16:36.271Z,67.46
2022-08-17T06:19:21.279Z,64.85
2022-08-17T06:21:52.641Z,61.96
2022-08-17T06:24:34.356Z,60.05
2022-08-17T06:27:33.655Z,61.73
2022-08-17T06:30:21.964Z,62.10
2022-08-17T06:32:52.518Z,61.74
2022-08-17T06:35:32.023Z,62.00
2022-08-17T06:38:38.110Z,61.85
2022-08-17T06:41:22.593Z,60.37
2022-08-17T06:44:49.957Z,54.74
2022-08-17T06:47:30.024Z,49.95
2022-08-17T06:50:40.397Z,43.76
2022-08-17T06:53:29.836Z,39.45
2022-08-17T06:56:20.967Z,36.79
2022-08-17T06:58:50.892Z,35.73
2022-08-17T07:01:25.262Z,34.24
2022-08-17T07:04:12.358Z,33.41
2022-08-17T07:06:51.405Z,31.79
2022-08-17T07:09:34.116Z,32.43
2022-08-17T07:12:16.449Z,30.93
2022-08-17T07:14:46.228Z,31.47
2022-08-17T07:17:18.463Z,31.84
2022-08-17T07:19:48.106Z,30.64
2022-08-17T07:22:30.565Z,29.66
2022-08-17T07:25:20.867Z,29.59
2022-08-17T07:27:54.502Z,29.47
2022-08-17T07:30:31.271Z,29.48
2022-08-17T07:33:17.882Z,29.49
2022-08-17T07:35:50.167Z,28.90
2022-08-17T07:38:26.876Z,29.71
2022-08-17T07:40:57.902Z,28.23
2022-08-17T07:43:31.181Z,28.87
2022-08-17T07:46:23.138Z,28.74
2022-08-17T07:48:53.786Z,28.25
2022-08-17T07:51:32.277Z,28.93
2022-08-17T07:54:23.230Z,28.65
2022-08-17T07:57:02.010Z,27.87
2022-08-17T07:59:35.899Z,28.22
2022-08-17T08:02:15.741Z,27.09
2022-08-17T08:05:01.107Z,27.20
2022-08-17T08:07:38.463Z,26.91
2022-08-17T08:10:11.101Z,25.64
2022-08-17T08:12:45.301Z,27.30
2022-08-17T08:15:19.160Z,25.94
2022-08-17T08:17:59.381Z,25.60
2022-08-17T08:21:04.194Z,25.15
2022-08-17T08:23:37.282Z,25.58
2022-08-17T08:26:26.468Z,25.72
2022-08-17T08:29:18.759Z,26.10
2022-08-17T08:31:58.903Z,24.22
2022-08-17T08:35:03.755Z,23.67
2022-08-17T08:37:40.536Z,25.91
2022-08-17T08:40:13.633Z,24.69
2022-08-17T08:42:56.721Z,28.27
2022-08-17T08:45:33.033Z,26.70
2022-08-17T08:48:46.043Z,24.87
2022-08-17T08:51:16.497Z,25.28
2022-08-17T08:54:09.509Z,25.63
2022-08-17T08:57:33.487Z,23.50
2022-08-17T09:00:35.940Z,23.10
2022-08-17T09:03:08.486Z,23.89
2022-08-17T09:06:06.831Z,24.79
2022-08-17T09:09:18.794Z,24.58
2022-08-17T09:12:17.625Z,24.05
2022-08-17T09:15:12.815Z,24.80
2022-08-17T09:18:08.601Z,23.53
2022-08-17T09:20:54.000Z,23.74
2022-08-17T09:23:37.282Z,24.18
2022-08-17T09:26:23.827Z,23.76
2022-08-17T09:29:01.592Z,22.92
2022-08-17T09:31:35.601Z,23.97
2022-08-17T09:34:33.050Z,23.83
2022-08-17T09:37:23.245Z,22.33
2022-08-17T09:40:05.625Z,22.94
2022-08-17T09:42:50.087Z,22.33
2022-08-17T09:45:23.152Z,23.30
2022-08-17T09:47:53.955Z,21.32
2022-08-17T09:51:03.462Z,21.57
2022-08-17T09:53:15.617Z,24.17
2022-08-17T09:55:45.783Z,22.53
2022-08-17T09:58:30.697Z,22.02
2022-08-17T10:01:08.739Z,22.53
2022-08-17T10:04:03.657Z,22.51
2022-08-17T10:06:37.934Z,23.21
2022-08-17T10:09:40.280Z,23.27
2022-08-17T10:12:17.078Z,22.91
2022-08-17T10:14:55.141Z,24.26
2022-08-17T10:17:35.264Z,23.89
2022-08-17T10:20:29.803Z,25.40
2022-08-17T10:23:21.690Z,24.49
2022-08-17T10:26:17.069Z,25.37
2022-08-17T10:28:53.268Z,23.62
2022-08-17T10:31:36.262Z,23.79
2022-08-17T10:34:12.413Z,24.08
2022-08-17T10:36:46.257Z,24.33
2022-08-17T10:39:36.287Z,25.85
2022-08-17T10:42:37.436Z,24.76
2022-08-17T10:45:26.397Z,24.52
2022-08-17T10:48:04.747Z,24.70
2022-08-17T10:50:44.439Z,24.55
2022-08-17T10:53:33.799Z,25.00
2022-08-17T10:56:13.242Z,24.68
2022-08-17T10:58:50.777Z,25.57
2022-08-17T11:01:18.460Z,26.84
2022-08-17T11:03:56.844Z,26.90
2022-08-17T11:06:32.903Z,25.79
2022-08-17T11:09:21.532Z,26.60
2022-08-17T11:12:37.665Z,28.05
2022-08-17T11:15:44.029Z,27.81
2022-08-17T11:18:30.671Z,27.14
2022-08-17T11:21:21.985Z,29.36
2022-08-17T11:24:01.573Z,27.41
2022-08-17T11:26:32.104Z,28.05
2022-08-17T11:29:09.078Z,27.39
2022-08-17T11:31:46.627Z,27.12
2022-08-17T11:34:15.937Z,28.50
2022-08-17T11:37:06.927Z,26.64
2022-08-17T11:40:06.429Z,26.69
2022-08-17T11:42:45.064Z,27.26
2022-08-17T11:45:34.144Z,27.52
2022-08-17T11:48:40.545Z,25.78
2022-08-17T11:51:35.609Z,25.88
2022-08-17T11:54:31.586Z,27.07
2022-08-17T11:56:59.045Z,26.29
2022-08-17T11:59:36.472Z,26.56
2022-08-17T12:02:29.864Z,28.06
2022-08-17T12:05:17.103Z,27.94
2022-08-17T12:08:15.419Z,27.57
2022-08-17T12:10:54.581Z,27.11
2022-08-17T12:13:30.523Z,27.62
2022-08-17T12:16:03.561Z,26.52
2022-08-17T12:18:39.134Z,26.50
2022-08-17T12:21:23.419Z,26.46
2022-08-17T12:24:06.605Z,27.41
2022-08-17T12:26:36.907Z,26.97
2022-08-17T12:29:18.301Z,28.97
2022-08-17T12:32:03.818Z,27.33
2022-08-17T12:34:42.949Z,27.04
2022-08-17T12:37:27.866Z,29.21
2022-08-17T12:40:04.183Z,26.70
2022-08-17T12:42:37.307Z,27.28
2022-08-17T12:45:07.538Z,26.97
2022-08-17T12:47:38.079Z,27.06
2022-08-17T12:50:28.955Z,26.63
2022-08-17T12:53:01.685Z,26.64
2022-08-17T12:55:36.786Z,25.92
2022-08-17T12:58:04.413Z,26.44
2022-08-17T13:00:36.467Z,26.97
2022-08-17T13:03:19.404Z,27.08
2022-08-17T13:05:52.730Z,25.75
2022-08-17T13:08:24.650Z,26.42
2022-08-17T13:11:01.566Z,26.13
2022-08-17T13:13:34.894Z,25.95
2022-08-17T13:16:03.670Z,26.12
2022-08-17T13:18:55.287Z,26.31
2022-08-17T13:21:22.961Z,27.02
2022-08-17T13:24:01.920Z,26.46
2022-08-17T13:26:48.689Z,25.80
2022-08-17T13:29:39.283Z,25.95
2022-08-17T13:32:13.254Z,26.17
2022-08-17T13:34:51.385Z,26.10
2022-08-17T13:37:36.656Z,25.73
2022-08-17T13:40:29.161Z,26.17
2022-08-17T13:42:57.723Z,26.29
2022-08-17T13:45:39.132Z,26.86
2022-08-17T13:48:12.507Z,26.36
2022-08-17T13:50:55.428Z,26.51
2022-08-17T13:53:32.784Z,26.44
2022-08-17T13:56:34.933Z,26.04
2022-08-17T13:59:12.368Z,25.99
2022-08-17T14:01:51.121Z,25.24
2022-08-17T14:04:24.925Z,25.22
2022-08-17T14:07:03.708Z,25.51
2022-08-17T14:09:37.764Z,26.30
2022-08-17T14:12:17.050Z,25.71
2022-08-17T14:14:49.650Z,26.36
2022-08-17T14:17:23.075Z,26.68
2022-08-17T14:19:51.350Z,26.10
2022-08-17T14:22:32.116Z,25.77
2022-08-17T14:25:01.828Z,26.02
2022-08-17T14:27:32.014Z,26.72
2022-08-17T14:29:59.538Z,26.33
2022-08-17T14:32:30.209Z,25.81
2022-08-17T14:35:00.067Z,26.49
2022-08-17T14:37:28.688Z,26.26
2022-08-17T14:40:01.089Z,26.75
2022-08-17T14:42:32.505Z,26.29
2022-08-17T14:45:06.200Z,26.46
2022-08-17T14:47:55.677Z,26.38
2022-08-17T14:50:22.729Z,25.77
2022-08-17T14:52:50.972Z,26.06
2022-08-17T14:55:20.884Z,25.70
2022-08-17T14:57:48.590Z,26.18
2022-08-17T15:00:16.661Z,26.24
2022-08-17T15:02:53.846Z,26.05
2022-08-17T15:05:31.774Z,25.55
2022-08-17T15:08:02.650Z,26.50
2022-08-17T15:10:30.397Z,26.42
2022-08-17T15:12:57.965Z,25.96
2022-08-17T15:15:25.890Z,25.94
2022-08-17T15:17:53.330Z,26.21
2022-08-17T15:20:23.922Z,25.85
2022-08-17T15:22:55.559Z,26.02
2022-08-17T15:25:25.382Z,26.11
2022-08-17T15:27:52.936Z,26.35
2022-08-17T15:30:20.254Z,26.24
2022-08-17T15:32:54.557Z,26.49
2022-08-17T15:35:27.271Z,26.50
2022-08-17T15:38:06.511Z,26.55
2022-08-17T15:40:41.217Z,27.40
2022-08-17T15:43:13.521Z,27.30
2022-08-17T15:45:43.258Z,27.87
2022-08-17T15:48:10.455Z,27.93
2022-08-17T15:50:38.023Z,26.71
2022-08-17T15:53:07.433Z,26.77
2022-08-17T15:55:38.415Z,27.34
2022-08-17T15:58:05.948Z,27.45
2022-08-17T16:00:35.430Z,27.33
2022-08-17T16:04:01.182Z,27.16
2022-08-17T16:06:09.877Z,27.44
2022-08-17T16:08:38.670Z,27.77
2022-08-17T16:11:05.818Z,27.75
2022-08-17T16:13:33.055Z,27.86
2022-08-17T16:16:00.043Z,27.51
2022-08-17T16:18:31.127Z,27.18
2022-08-17T16:21:22.965Z,26.89
2022-08-17T16:23:52.109Z,27.23
2022-08-17T16:26:22.955Z,28.66
2022-08-17T16:28:51.086Z,28.09
2022-08-17T16:31:18.075Z,27.18
2022-08-17T16:34:16.284Z,27.23
2022-08-17T16:36:32.579Z,27.59
2022-08-17T16:39:00.823Z,28.66
2022-08-17T16:41:46.140Z,29.17
2022-08-17T16:44:15.862Z,29.49
2022-08-17T16:46:45.542Z,29.96
2022-08-17T16:49:36.119Z,30.14
2022-08-17T16:52:03.445Z,29.93
2022-08-17T16:54:30.409Z,30.21
2022-08-17T16:56:59.539Z,30.92
2022-08-17T16:59:39.414Z,31.28
2022-08-17T17:02:15.504Z,31.61
2022-08-17T17:04:54.569Z,31.40
2022-08-17T17:07:50.968Z,31.46
2022-08-17T17:10:36.184Z,32.42
2022-08-17T17:13:09.696Z,33.91
2022-08-17T17:15:52.437Z,35.27
2022-08-17T17:18:23.239Z,35.90
2022-08-17T17:20:57.105Z,36.47
2022-08-17T17:23:56.472Z,36.79
2022-08-17T17:26:39.035Z,38.34
2022-08-17T17:29:24.127Z,38.91
2022-08-17T17:32:09.685Z,38.99
2022-08-17T17:34:42.092Z,36.88
2022-08-17T17:37:20.375Z,38.32
2022-08-17T17:39:53.840Z,38.87
2022-08-17T17:42:28.385Z,38.27
2022-08-17T17:45:12.192Z,38.48
2022-08-17T17:47:39.343Z,39.91
2022-08-17T17:50:09.130Z,40.34
2022-08-17T17:52:42.386Z,40.73
2022-08-17T17:55:27.738Z,41.34
2022-08-17T17:58:06.627Z,42.33
2022-08-17T18:01:18.482Z,42.84
2022-08-17T18:04:04.658Z,43.00
2022-08-17T18:06:46.572Z,43.43
2022-08-17T18:09:34.002Z,44.21
2022-08-17T18:12:10.364Z,45.64
2022-08-17T18:15:01.639Z,45.41
2022-08-17T18:17:29.850Z,45.11
2022-08-17T18:19:57.107Z,45.45
2022-08-17T18:22:24.990Z,45.52
2022-08-17T18:24:56.448Z,45.98
2022-08-17T18:27:37.310Z,46.42
2022-08-17T18:30:13.652Z,46.76
2022-08-17T18:32:43.725Z,47.01
2022-08-17T18:35:10.944Z,47.57
2022-08-17T18:37:43.577Z,48.20
2022-08-17T18:40:16.513Z,48.09
2022-08-17T18:43:23.347Z,48.54
2022-08-17T18:45:53.740Z,48.83
2022-08-17T18:48:29.443Z,49.76
2022-08-17T18:51:04.930Z,49.08
2022-08-17T18:53:35.122Z,49.57
2022-08-17T18:56:23.398Z,49.73
2022-08-17T18:58:58.543Z,49.86
2022-08-17T19:01:41.957Z,50.79
2022-08-17T19:04:34.139Z,51.20
2022-08-17T19:07:10.934Z,51.74
2022-08-17T19:09:48.714Z,51.79
2022-08-17T19:12:38.295Z,51.78
2022-08-17T19:15:09.415Z,51.31
2022-08-17T19:18:02.759Z,51.78
2022-08-17T19:20:35.906Z,51.80
2022-08-17T19:23:14.157Z,51.79
2022-08-17T19:25:48.580Z,52.36
2022-08-17T19:28:27.920Z,53.17
2022-08-17T19:30:59.575Z,54.40
2022-08-17T19:33:27.336Z,53.96
2022-08-17T19:36:27.296Z,54.74
2022-08-17T19:39:06.008Z,54.90
2022-08-17T19:41:50.014Z,55.52
2022-08-17T19:44:46.538Z,55.78
2022-08-17T19:47:30.438Z,55.89
2022-08-17T19:50:27.393Z,56.35
2022-08-17T19:53:36.723Z,56.48
2022-08-17T19:56:24.357Z,56.91
2022-08-17T19:59:18.949Z,57.03
2022-08-17T20:01:53.969Z,57.50
2022-08-17T20:04:33.109Z,58.71
2022-08-17T20:07:08.214Z,58.80
2022-08-17T20:09:43.763Z,58.67
2022-08-17T20:12:17.603Z,59.50
2022-08-17T20:15:04.869Z,59.88
2022-08-17T20:17:37.367Z,60.65
2022-08-17T20:20:54.762Z,61.55
2022-08-17T20:23:31.282Z,61.64
2022-08-17T20:26:07.564Z,62.76
2022-08-17T20:28:39.016Z,63.98
2022-08-17T20:31:45.574Z,64.22
2022-08-17T20:34:37.090Z,64.29
2022-08-17T20:37:25.070Z,64.33
2022-08-17T20:39:52.794Z,64.85
2022-08-17T20:42:19.797Z,65.42
2022-08-17T20:44:58.072Z,65.84
2022-08-17T20:48:00.863Z,65.68
2022-08-17T20:50:47.092Z,65.77
2022-08-17T20:53:55.073Z,65.74
2022-08-17T20:56:43.890Z,65.93
2022-08-17T20:59:26.143Z,66.60
2022-08-17T21:02:08.946Z,66.85
2022-08-17T21:04:52.840Z,66.78
2022-08-17T21:07:42.579Z,67.07
2022-08-17T21:10:27.711Z,67.28
2022-08-17T21:13:28.307Z,67.45
2022-08-17T21:16:10.283Z,67.65
2022-08-17T21:19:00.715Z,68.73
2022-08-17T21:21:37.719Z,68.66
2022-08-17T21:24:22.243Z,68.74
2022-08-17T21:27:25.026Z,68.90
2022-08-17T21:30:30.525Z,68.38
2022-08-17T21:33:25.570Z,68.55
2022-08-17T21:36:16.105Z,69.05
2022-08-17T21:38:57.004Z,69.58
2022-08-17T21:41:27.433Z,69.28
2022-08-17T21:44:02.869Z,69.00
2022-08-17T21:46:31.617Z,69.52
2022-08-17T21:49:13.603Z,69.82
2022-08-17T21:51:47.315Z,70.26
2022-08-17T21:54:35.802Z,70.51
2022-08-17T21:57:06.072Z,70.18
2022-08-17T21:59:36.056Z,70.67
2022-08-17T22:02:05.770Z,70.71
2022-08-17T22:04:37.171Z,70.68
2022-08-17T22:07:11.385Z,70.81
2022-08-17T22:09:43.285Z,70.99
2022-08-17T22:12:18.284Z,71.90
2022-08-17T22:15:00.685Z,73.01
2022-08-17T22:17:36.979Z,72.66
2022-08-17T22:20:09.538Z,72.28
2022-08-17T22:23:18.292Z,71.07
2022-08-17T22:26:06.126Z,70.91
2022-08-17T22:31:58.519Z,72.97
2022-08-17T22:34:35.696Z,73.21
2022-08-17T22:37:28.383Z,73.32
2022-08-17T22:39:59.471Z,73.44
2022-08-17T22:42:28.620Z,73.22
2022-08-17T22:44:55.666Z,73.63
2022-08-17T22:47:40.965Z,74.10
2022-08-17T22:50:37.447Z,74.63
2022-08-17T22:53:34.355Z,74.37
2022-08-17T22:56:19.964Z,74.95
2022-08-17T22:59:13.314Z,75.49
2022-08-17T23:01:43.560Z,75.51
2022-08-17T23:04:29.323Z,75.21
2022-08-17T23:06:56.302Z,76.90
2022-08-17T23:09:23.665Z,77.41
2022-08-17T23:11:58.717Z,78.11
2022-08-17T23:14:31.565Z,78.65
2022-08-17T23:16:59.443Z,78.42
2022-08-17T23:19:27.682Z,78.68
2022-08-17T23:21:56.379Z,78.52
2022-08-17T23:24:27.115Z,77.82
2022-08-17T23:26:57.350Z,77.69
2022-08-17T23:29:29.532Z,78.11
2022-08-17T23:31:59.988Z,77.87
2022-08-17T23:34:28.680Z,78.00
2022-08-17T23:36:58.078Z,78.42
2022-08-17T23:39:28.404Z,78.66
2022-08-17T23:41:58.410Z,78.84
2022-08-17T23:44:26.257Z,79.00
2022-08-17T23:46:56.504Z,79.35
2022-08-17T23:49:25.119Z,81.09
2022-08-17T23:51:54.850Z,81.49
2022-08-17T23:54:26.606Z,81.97
2022-08-17T23:56:53.940Z,82.98
2022-08-17T23:59:23.140Z,83.28
